createdAt,value
2022-10-04T00:00:27.281Z,68.20
2022-10-04T00:03:07.151Z,68.10
2022-10-04T00:05:35.848Z,68.10
2022-10-04T00:08:07.375Z,68.00
2022-10-04T00:10:34.651Z,67.90
2022-10-04T00:13:06.677Z,68.00
2022-10-04T00:15:40.123Z,68.10
2022-10-04T00:18:12.681Z,68.20
2022-10-04T00:20:50.559Z,68.20
2022-10-04T00:23:23.413Z,68.40
2022-10-04T00:25:52.254Z,68.40
2022-10-04T00:28:22.040Z,68.40
2022-10-04T00:31:24.939Z,68.50
2022-10-04T00:33:54.777Z,68.40
2022-10-04T00:36:24.328Z,68.40
2022-10-04T00:39:08.873Z,68.40
2022-10-04T00:41:41.692Z,68.50
2022-10-04T00:44:21.904Z,68.40
2022-10-04T00:46:49.992Z,68.40
2022-10-04T00:49:22.929Z,68.50
2022-10-04T00:52:06.420Z,68.50
2022-10-04T00:54:41.261Z,68.50
2022-10-04T00:57:20.752Z,68.50
2022-10-04T01:00:01.537Z,68.60
2022-10-04T01:02:31.710Z,68.70
2022-10-04T01:05:36.413Z,68.60
2022-10-04T01:08:13.906Z,68.40
2022-10-04T01:10:52.700Z,68.50
2022-10-04T01:13:35.220Z,68.50
2022-10-04T01:16:14.444Z,68.60
2022-10-04T01:18:41.853Z,68.50
2022-10-04T01:21:20.433Z,68.30
2022-10-04T01:23:48.471Z,68.20
2022-10-04T01:26:29.247Z,68.00
2022-10-04T01:29:16.397Z,68.00
2022-10-04T01:32:03.500Z,68.10
2022-10-04T01:34:30.713Z,68.10
2022-10-04T01:37:00.144Z,68.00
2022-10-04T01:39:28.627Z,68.00
2022-10-04T01:42:09.312Z,67.90
2022-10-04T01:44:41.624Z,67.90
2022-10-04T01:47:26.808Z,67.80
2022-10-04T01:49:57.806Z,67.80
2022-10-04T01:52:33.162Z,67.80
2022-10-04T01:55:05.107Z,67.60
2022-10-04T01:57:45.015Z,68.10
2022-10-04T02:00:13.571Z,67.20
2022-10-04T02:02:51.804Z,67.10
2022-10-04T02:05:27.745Z,67.20
2022-10-04T02:07:56.114Z,67.20
2022-10-04T02:10:25.950Z,67.10
2022-10-04T02:12:54.663Z,67.00
2022-10-04T02:15:22.881Z,67.00
2022-10-04T02:17:50.465Z,67.00
2022-10-04T02:20:23.980Z,66.90
2022-10-04T02:22:56.443Z,66.80
2022-10-04T02:25:23.369Z,66.90
2022-10-04T02:27:53.808Z,67.00
2022-10-04T02:30:20.923Z,67.00
2022-10-04T02:33:00.695Z,67.00
2022-10-04T02:35:31.297Z,67.10
2022-10-04T02:38:08.124Z,67.20
2022-10-04T02:40:58.077Z,67.30
2022-10-04T02:43:47.309Z,67.30
2022-10-04T02:46:29.568Z,67.40
2022-10-04T02:49:02.205Z,67.40
2022-10-04T02:51:45.311Z,67.40
2022-10-04T02:54:27.713Z,67.50
2022-10-04T02:56:56.888Z,67.50
2022-10-04T02:59:24.125Z,67.50
2022-10-04T03:01:57.767Z,67.50
2022-10-04T03:04:39.032Z,67.50
2022-10-04T03:07:08.319Z,67.50
2022-10-04T03:09:37.392Z,67.50
2022-10-04T03:12:05.142Z,67.60
2022-10-04T03:14:32.479Z,67.50
2022-10-04T03:17:04.103Z,67.50
2022-10-04T03:19:32.634Z,67.50
2022-10-04T03:22:12.766Z,67.60
2022-10-04T03:24:47.163Z,67.70
2022-10-04T03:27:21.776Z,67.70
2022-10-04T03:29:50.389Z,67.70
2022-10-04T03:32:18.927Z,67.60
2022-10-04T03:35:07.912Z,67.50
2022-10-04T03:37:37.529Z,67.40
2022-10-04T03:40:08.560Z,67.50
2022-10-04T03:42:37.537Z,67.50
2022-10-04T03:45:11.586Z,67.40
2022-10-04T03:47:45.087Z,67.50
2022-10-04T03:50:24.683Z,67.50
2022-10-04T03:52:56.948Z,67.50
2022-10-04T03:55:34.134Z,67.30
2022-10-04T03:58:02.071Z,67.20
2022-10-04T04:00:29.578Z,67.20
2022-10-04T04:03:03.355Z,67.20
2022-10-04T04:05:37.157Z,67.20
2022-10-04T04:08:14.652Z,67.20
2022-10-04T04:10:50.961Z,67.20
2022-10-04T04:13:25.714Z,67.30
2022-10-04T04:16:00.501Z,67.30
2022-10-04T04:18:31.250Z,67.30
2022-10-04T04:21:01.683Z,67.20
2022-10-04T04:23:35.094Z,67.60
2022-10-04T04:26:25.084Z,66.90
2022-10-04T04:28:56.759Z,67.00
2022-10-04T04:31:38.883Z,67.00
2022-10-04T04:34:25.067Z,66.90
2022-10-04T04:36:57.026Z,66.90
2022-10-04T04:39:45.234Z,66.90
2022-10-04T04:42:19.241Z,66.90
2022-10-04T04:44:53.407Z,66.90
2022-10-04T04:47:30.230Z,67.10
2022-10-04T04:50:01.954Z,67.00
2022-10-04T04:52:29.590Z,67.00
2022-10-04T04:54:56.794Z,67.00
2022-10-04T04:57:23.690Z,66.90
2022-10-04T04:59:56.122Z,66.90
2022-10-04T05:02:37.191Z,66.80
2022-10-04T05:05:30.494Z,66.80
2022-10-04T05:08:13.202Z,66.90
2022-10-04T05:11:00.096Z,66.90
2022-10-04T05:13:46.403Z,67.00
2022-10-04T05:16:27.118Z,67.10
2022-10-04T05:19:01.884Z,67.10
2022-10-04T05:21:34.788Z,66.80
2022-10-04T05:24:32.644Z,66.70
2022-10-04T05:27:06.041Z,66.50
2022-10-04T05:29:37.425Z,66.30
2022-10-04T05:32:23.180Z,66.20
2022-10-04T05:34:51.146Z,67.10
2022-10-04T05:38:03.666Z,66.80
2022-10-04T05:40:48.151Z,66.80
2022-10-04T05:43:30.291Z,65.70
2022-10-04T05:46:27.760Z,65.10
2022-10-04T05:49:08.329Z,64.90
2022-10-04T05:51:49.067Z,64.20
2022-10-04T05:54:22.161Z,63.90
2022-10-04T05:57:08.220Z,63.60
2022-10-04T06:00:08.771Z,63.40
2022-10-04T06:03:12.467Z,62.80
2022-10-04T06:06:01.365Z,62.40
2022-10-04T06:08:48.341Z,62.40
2022-10-04T06:11:36.522Z,62.60
2022-10-04T06:14:18.360Z,62.60
2022-10-04T06:17:13.479Z,62.70
2022-10-04T06:19:58.572Z,62.90
2022-10-04T06:22:29.555Z,63.00
2022-10-04T06:25:00.509Z,63.20
2022-10-04T06:27:41.805Z,63.30
2022-10-04T06:30:19.748Z,63.40
2022-10-04T06:33:25.324Z,63.70
2022-10-04T06:35:51.981Z,63.70
2022-10-04T06:38:29.119Z,63.80
2022-10-04T06:41:23.591Z,64.00
2022-10-04T06:43:59.627Z,64.40
2022-10-04T06:46:52.707Z,64.40
2022-10-04T06:49:31.355Z,64.80
2022-10-04T06:52:03.971Z,64.80
2022-10-04T06:54:50.076Z,64.80
2022-10-04T06:57:49.576Z,65.20
2022-10-04T07:00:26.304Z,65.60
2022-10-04T07:02:56.312Z,66.10
2022-10-04T07:05:32.690Z,66.40
2022-10-04T07:08:36.770Z,66.80
2022-10-04T07:11:09.141Z,67.20
2022-10-04T07:13:48.816Z,67.20
2022-10-04T07:16:43.982Z,67.40
2022-10-04T07:19:30.261Z,67.50
2022-10-04T07:22:10.215Z,67.60
2022-10-04T07:25:03.924Z,67.70
2022-10-04T07:27:42.220Z,68.00
2022-10-04T07:30:16.019Z,68.00
2022-10-04T07:32:48.227Z,68.10
2022-10-04T07:35:39.648Z,68.40
2022-10-04T07:38:14.083Z,68.60
2022-10-04T07:40:54.345Z,68.60
2022-10-04T07:43:33.452Z,68.70
2022-10-04T07:46:40.139Z,68.90
2022-10-04T07:49:17.909Z,68.90
2022-10-04T07:52:27.454Z,69.20
2022-10-04T07:55:37.524Z,69.40
2022-10-04T07:58:07.316Z,69.20
2022-10-04T08:01:01.667Z,69.10
2022-10-04T08:03:59.623Z,69.10
2022-10-04T08:06:46.445Z,69.30
2022-10-04T08:09:40.294Z,69.10
2022-10-04T08:12:13.430Z,69.30
2022-10-04T08:14:56.908Z,69.20
2022-10-04T08:17:27.098Z,69.10
2022-10-04T08:20:22.336Z,69.20
2022-10-04T08:23:19.659Z,69.60
2022-10-04T08:26:05.168Z,70.00
2022-10-04T08:29:16.935Z,69.80
2022-10-04T08:32:09.555Z,69.80
2022-10-04T08:34:51.920Z,69.40
2022-10-04T08:37:39.576Z,69.60
2022-10-04T08:40:24.374Z,69.90
2022-10-04T08:43:13.118Z,69.60
2022-10-04T08:45:55.541Z,69.50
2022-10-04T08:48:31.251Z,69.40
2022-10-04T08:51:40.810Z,69.60
2022-10-04T08:54:27.255Z,69.30
2022-10-04T08:57:17.388Z,68.90
2022-10-04T09:00:22.843Z,69.10
2022-10-04T09:03:20.672Z,69.00
2022-10-04T09:06:08.550Z,68.90
2022-10-04T09:08:53.490Z,68.60
2022-10-04T09:11:29.969Z,69.00
2022-10-04T09:14:33.165Z,69.30
2022-10-04T09:17:29.979Z,69.50
2022-10-04T09:20:37.810Z,69.10
2022-10-04T09:23:33.682Z,70.00
2022-10-04T09:26:22.010Z,69.60
2022-10-04T09:29:07.476Z,70.00
2022-10-04T09:31:44.498Z,69.70
2022-10-04T09:34:45.242Z,69.10
2022-10-04T09:37:32.727Z,69.30
2022-10-04T09:39:59.403Z,69.60
2022-10-04T09:43:00.213Z,69.00
2022-10-04T09:45:47.130Z,68.50
2022-10-04T09:48:37.495Z,68.70
2022-10-04T09:51:18.826Z,68.80
2022-10-04T09:54:05.089Z,68.60
2022-10-04T09:56:50.243Z,68.70
2022-10-04T09:59:57.123Z,69.00
2022-10-04T10:02:41.863Z,68.80
2022-10-04T10:05:41.466Z,69.10
2022-10-04T10:08:28.007Z,69.20
2022-10-04T10:11:39.115Z,68.60
2022-10-04T10:14:09.801Z,68.10
2022-10-04T10:16:42.666Z,68.30
2022-10-04T10:19:48.026Z,67.70
2022-10-04T10:22:42.257Z,67.50
2022-10-04T10:25:17.434Z,67.80
2022-10-04T10:28:08.468Z,67.50
2022-10-04T10:30:50.429Z,67.50
2022-10-04T10:34:00.259Z,67.50
2022-10-04T10:36:38.377Z,67.20
2022-10-04T10:39:21.310Z,67.30
2022-10-04T10:42:21.993Z,67.50
2022-10-04T10:45:16.732Z,67.40
2022-10-04T10:47:43.370Z,67.00
2022-10-04T10:51:05.615Z,67.50
2022-10-04T10:54:17.337Z,68.10
2022-10-04T10:56:58.205Z,68.30
2022-10-04T10:59:43.796Z,67.20
2022-10-04T11:02:16.744Z,67.70
2022-10-04T11:05:02.406Z,66.80
2022-10-04T11:07:31.852Z,66.20
2022-10-04T11:10:23.402Z,66.90
2022-10-04T11:13:37.350Z,66.20
2022-10-04T11:16:21.313Z,65.40
2022-10-04T11:19:30.341Z,65.80
2022-10-04T11:22:25.659Z,65.00
2022-10-04T11:25:07.393Z,64.10
2022-10-04T11:28:02.707Z,63.70
2022-10-04T11:31:07.232Z,63.90
2022-10-04T11:34:30.792Z,63.50
2022-10-04T11:37:10.024Z,63.80
2022-10-04T11:40:00.255Z,63.80
2022-10-04T11:42:44.877Z,62.10
2022-10-04T11:45:40.302Z,62.40
2022-10-04T11:48:32.267Z,63.80
2022-10-04T11:51:28.062Z,61.90
2022-10-04T11:54:04.155Z,62.80
2022-10-04T11:56:43.404Z,63.00
2022-10-04T11:59:29.142Z,64.20
2022-10-04T12:02:16.995Z,62.60
2022-10-04T12:05:15.209Z,61.30
2022-10-04T12:07:56.922Z,61.40
2022-10-04T12:10:27.729Z,61.70
2022-10-04T12:13:26.350Z,61.30
2022-10-04T12:16:25.647Z,61.40
2022-10-04T12:19:30.207Z,60.70
2022-10-04T12:22:24.221Z,60.50
2022-10-04T12:25:21.489Z,60.30
2022-10-04T12:28:26.583Z,60.60
2022-10-04T12:31:04.523Z,60.20
2022-10-04T12:33:34.540Z,60.00
2022-10-04T12:36:04.366Z,60.00
2022-10-04T12:39:00.481Z,60.40
2022-10-04T12:52:23.880Z,59.40
2022-10-04T12:54:56.544Z,58.30
2022-10-04T13:10:57.612Z,59.00
2022-10-04T13:13:44.787Z,57.80
2022-10-04T13:19:43.505Z,56.70
2022-10-04T13:22:54.701Z,56.80
2022-10-04T13:25:32.725Z,56.70
2022-10-04T13:28:05.647Z,57.10
2022-10-04T13:30:50.107Z,56.70
2022-10-04T13:33:27.005Z,57.00
2022-10-04T13:36:16.802Z,57.30
2022-10-04T13:39:01.743Z,56.80
2022-10-04T13:41:55.534Z,57.00
2022-10-04T13:44:34.250Z,57.80
2022-10-04T13:47:25.665Z,56.90
2022-10-04T13:50:15.296Z,57.60
2022-10-04T13:53:33.851Z,57.70
2022-10-04T13:56:28.110Z,57.20
2022-10-04T13:59:10.389Z,56.70
2022-10-04T14:02:13.481Z,56.50
2022-10-04T14:04:58.267Z,56.90
2022-10-04T14:07:37.199Z,57.20
2022-10-04T14:10:28.695Z,57.00
2022-10-04T14:13:17.354Z,57.20
2022-10-04T14:15:47.114Z,57.40
2022-10-04T14:18:49.153Z,57.60
2022-10-04T14:21:24.717Z,57.60
2022-10-04T14:24:21.860Z,58.20
2022-10-04T14:27:00.474Z,58.60
2022-10-04T14:29:46.460Z,58.30
2022-10-04T14:32:28.597Z,58.10
2022-10-04T14:35:00.987Z,58.20
2022-10-04T14:37:50.130Z,58.40
2022-10-04T14:40:53.840Z,58.50
2022-10-04T14:44:13.873Z,59.20
2022-10-04T14:47:07.163Z,59.40
2022-10-04T14:50:00.263Z,59.40
2022-10-04T14:52:36.998Z,59.10
2022-10-04T14:55:43.403Z,59.20
2022-10-04T14:58:40.863Z,59.50
2022-10-04T15:01:16.703Z,59.60
2022-10-04T15:04:27.620Z,59.70
2022-10-04T15:07:02.083Z,60.00
2022-10-04T15:09:48.490Z,59.90
2022-10-04T15:13:08.727Z,59.50
2022-10-04T15:15:40.646Z,60.30
2022-10-04T15:18:29.217Z,59.80
2022-10-04T15:21:32.362Z,60.70
2022-10-04T15:24:27.491Z,60.30
2022-10-04T15:27:21.564Z,60.40
2022-10-04T15:30:19.356Z,59.90
2022-10-04T15:33:01.226Z,60.50
2022-10-04T15:35:53.184Z,60.20
2022-10-04T15:38:53.756Z,60.40
2022-10-04T15:41:45.812Z,60.70
2022-10-04T15:44:46.304Z,60.50
2022-10-04T15:47:53.473Z,61.70
2022-10-04T15:50:41.766Z,61.20
2022-10-04T15:53:13.901Z,61.50
2022-10-04T15:56:06.697Z,61.40
2022-10-04T15:58:58.303Z,62.30
2022-10-04T16:01:35.449Z,62.00
2022-10-04T16:04:35.961Z,62.30
2022-10-04T16:07:21.791Z,62.70
2022-10-04T16:10:16.674Z,61.70
2022-10-04T16:13:02.276Z,61.30
2022-10-04T16:15:36.926Z,61.90
2022-10-04T16:18:30.996Z,62.20
2022-10-04T16:21:28.248Z,62.30
2022-10-04T16:24:17.872Z,62.30
2022-10-04T16:26:44.847Z,62.70
2022-10-04T16:29:40.735Z,63.30
2022-10-04T16:32:10.503Z,63.20
2022-10-04T16:34:48.150Z,63.40
2022-10-04T16:37:39.525Z,63.70
2022-10-04T16:40:31.503Z,63.80
2022-10-04T16:43:18.581Z,64.20
2022-10-04T16:46:02.904Z,63.90
2022-10-04T16:48:38.906Z,63.50
2022-10-04T16:51:13.090Z,63.40
2022-10-04T16:54:04.694Z,63.50
2022-10-04T16:56:54.042Z,63.80
2022-10-04T16:59:52.113Z,64.30
2022-10-04T17:02:43.562Z,63.70
2022-10-04T17:05:31.945Z,63.30
2022-10-04T17:07:58.888Z,63.40
2022-10-04T17:10:31.361Z,63.40
2022-10-04T17:13:08.050Z,64.20
2022-10-04T17:15:49.695Z,64.20
2022-10-04T17:18:26.577Z,63.70
2022-10-04T17:21:05.924Z,63.70
2022-10-04T17:24:09.795Z,64.30
2022-10-04T17:26:48.846Z,63.70
2022-10-04T17:29:41.921Z,63.80
2022-10-04T17:32:25.838Z,63.70
2022-10-04T17:34:58.709Z,64.00
2022-10-04T17:38:17.416Z,63.70
2022-10-04T17:41:09.487Z,63.80
2022-10-04T17:44:13.721Z,63.90
2022-10-04T17:47:08.636Z,63.80
2022-10-04T17:50:14.847Z,63.90
2022-10-04T17:53:06.497Z,64.10
2022-10-04T17:55:57.988Z,63.80
2022-10-04T17:58:57.544Z,63.90
2022-10-04T18:01:34.037Z,64.00
2022-10-04T18:04:10.045Z,64.00
2022-10-04T18:07:12.068Z,64.20
2022-10-04T18:09:47.438Z,64.10
2022-10-04T18:12:55.628Z,64.30
2022-10-04T18:15:28.544Z,64.20
2022-10-04T18:18:10.450Z,64.10
2022-10-04T18:20:44.862Z,64.40
2022-10-04T18:23:35.118Z,64.30
2022-10-04T18:26:11.534Z,64.50
2022-10-04T18:28:38.375Z,64.70
2022-10-04T18:31:22.701Z,64.60
2022-10-04T18:33:53.862Z,64.60
2022-10-04T18:36:31.227Z,64.70
2022-10-04T18:39:03.462Z,64.80
2022-10-04T18:41:49.937Z,64.80
2022-10-04T18:44:20.297Z,64.70
2022-10-04T18:46:51.230Z,64.80
2022-10-04T18:49:25.447Z,64.90
2022-10-04T18:52:34.432Z,65.10
2022-10-04T18:55:15.919Z,65.00
2022-10-04T18:58:08.895Z,65.10
2022-10-04T19:01:00.535Z,65.00
2022-10-04T19:03:59.879Z,65.10
2022-10-04T19:06:33.023Z,65.20
2022-10-04T19:09:18.852Z,65.40
2022-10-04T19:12:05.999Z,65.20
2022-10-04T19:14:42.111Z,65.30
2022-10-04T19:17:29.975Z,65.30
2022-10-04T19:20:07.023Z,65.30
2022-10-04T19:23:01.040Z,65.40
2022-10-04T19:25:32.475Z,65.50
2022-10-04T19:28:24.025Z,65.60
2022-10-04T19:31:26.889Z,65.80
2022-10-04T19:34:07.595Z,65.60
2022-10-04T19:36:46.830Z,65.80
2022-10-04T19:39:41.808Z,65.60
2022-10-04T19:42:14.016Z,65.90
2022-10-04T19:45:07.466Z,65.60
2022-10-04T19:47:48.996Z,65.70
2022-10-04T19:50:21.327Z,65.50
2022-10-04T19:52:49.324Z,65.60
2022-10-04T19:55:34.788Z,66.20
2022-10-04T19:58:30.070Z,65.70
2022-10-04T20:00:56.838Z,65.50
2022-10-04T20:03:23.758Z,65.50
2022-10-04T20:05:53.328Z,65.50
2022-10-04T20:09:17.402Z,65.50
2022-10-04T20:11:44.018Z,65.50
2022-10-04T20:14:16.917Z,65.40
2022-10-04T20:16:46.587Z,65.40
2022-10-04T20:19:43.231Z,65.60
2022-10-04T20:22:12.668Z,65.40
2022-10-04T20:24:39.352Z,65.70
2022-10-04T20:27:28.621Z,65.40
2022-10-04T20:29:57.074Z,65.40
2022-10-04T20:32:26.543Z,65.50
2022-10-04T20:34:55.641Z,65.40
2022-10-04T20:37:43.029Z,65.40
2022-10-04T20:40:30.184Z,65.10
2022-10-04T20:43:24.014Z,65.20
2022-10-04T20:45:54.818Z,65.20
2022-10-04T20:48:22.707Z,65.10
2022-10-04T20:50:50.406Z,65.40
2022-10-04T20:53:29.411Z,65.40
2022-10-04T20:56:26.527Z,65.60
2022-10-04T20:58:59.624Z,65.40
2022-10-04T21:01:36.767Z,65.40
2022-10-04T21:04:32.687Z,65.50
2022-10-04T21:07:05.932Z,65.60
2022-10-04T21:09:34.883Z,65.80
2022-10-04T21:12:03.449Z,65.70
2022-10-04T21:14:33.774Z,65.60
2022-10-04T21:17:03.094Z,65.50
2022-10-04T21:19:32.938Z,65.80
2022-10-04T21:22:03.785Z,65.80
2022-10-04T21:24:48.643Z,65.80
2022-10-04T21:27:37.370Z,65.90
2022-10-04T21:30:13.121Z,65.70
2022-10-04T21:32:39.988Z,65.60
2022-10-04T21:35:08.424Z,65.60
2022-10-04T21:37:35.971Z,65.70
2022-10-04T21:40:03.736Z,65.70
2022-10-04T21:42:30.417Z,65.80
2022-10-04T21:44:57.355Z,65.70
2022-10-04T21:47:25.200Z,65.60
2022-10-04T21:49:53.813Z,65.50
2022-10-04T21:52:20.492Z,65.60
2022-10-04T21:54:47.405Z,65.60
2022-10-04T21:57:14.127Z,65.90
2022-10-04T21:59:40.832Z,65.90
2022-10-04T22:02:07.896Z,65.80
2022-10-04T22:04:34.759Z,65.90
2022-10-04T22:07:01.603Z,66.10
2022-10-04T22:09:29.175Z,66.10
2022-10-04T22:11:55.961Z,66.20
2022-10-04T22:14:22.732Z,66.20
2022-10-04T22:16:50.066Z,66.30
2022-10-04T22:19:17.353Z,66.40
2022-10-04T22:21:44.061Z,66.20
2022-10-04T22:24:17.483Z,66.20
2022-10-04T22:26:44.767Z,66.30
2022-10-04T22:29:16.682Z,66.30
2022-10-04T22:31:53.034Z,66.10
2022-10-04T22:34:22.560Z,66.30
2022-10-04T22:36:51.974Z,66.40
2022-10-04T22:39:20.348Z,66.30
2022-10-04T22:41:55.967Z,66.30
2022-10-04T22:44:34.208Z,66.20
2022-10-04T22:47:03.647Z,66.10
2022-10-04T22:49:34.746Z,66.40
2022-10-04T22:52:06.257Z,66.40
2022-10-04T22:54:34.752Z,66.30
2022-10-04T22:57:02.008Z,66.40
2022-10-04T22:59:40.272Z,66.40
2022-10-04T23:02:17.970Z,66.60
2022-10-04T23:04:51.293Z,66.60
2022-10-04T23:07:18.769Z,66.50
2022-10-04T23:09:45.709Z,66.40
2022-10-04T23:12:12.558Z,66.40
2022-10-04T23:14:40.148Z,66.50
2022-10-04T23:17:28.641Z,66.40
2022-10-04T23:20:17.634Z,66.50
2022-10-04T23:22:52.724Z,66.50
2022-10-04T23:25:27.792Z,66.60
2022-10-04T23:28:01.602Z,66.60
2022-10-04T23:30:28.507Z,66.50
2022-10-04T23:32:59.626Z,66.50
2022-10-04T23:35:31.217Z,66.60
2022-10-04T23:37:58.162Z,66.60
2022-10-04T23:40:25.705Z,66.50
2022-10-04T23:42:56.450Z,66.60
2022-10-04T23:45:25.258Z,66.60
2022-10-04T23:47:55.552Z,66.60
2022-10-04T23:50:37.485Z,66.70
2022-10-04T23:53:11.368Z,66.80
2022-10-04T23:55:41.206Z,66.70
2022-10-04T23:58:20.312Z,66.70
